sensor_id;sensor_type;location;lat;lon;timestamp;P1;durP1;ratioP1;P2;durP2;ratioP2
67558;SDS011;54388;53.536;49.300;2023-04-15T00:01:39;3.72;;;0.85;;
67558;SDS011;54388;53.536;49.300;2023-04-15T00:04:05;2.90;;;1.08;;
67558;SDS011;54388;53.536;49.300;2023-04-15T00:06:32;2.35;;;1.00;;
67558;SDS011;54388;53.536;49.300;2023-04-15T00:08:58;4.20;;;0.85;;
67558;SDS011;54388;53.536;49.300;2023-04-15T00:11:25;3.30;;;0.90;;
67558;SDS011;54388;53.536;49.300;2023-04-15T00:13:51;5.22;;;1.67;;
67558;SDS011;54388;53.536;49.300;2023-04-15T00:16:18;3.00;;;1.00;;
67558;SDS011;54388;53.536;49.300;2023-04-15T00:18:45;2.55;;;0.90;;
67558;SDS011;54388;53.536;49.300;2023-04-15T00:21:12;3.60;;;0.98;;
67558;SDS011;54388;53.536;49.300;2023-04-15T00:23:38;3.08;;;1.08;;
67558;SDS011;54388;53.536;49.300;2023-04-15T00:26:05;2.35;;;0.85;;
67558;SDS011;54388;53.536;49.300;2023-04-15T00:28:32;2.72;;;1.10;;
67558;SDS011;54388;53.536;49.300;2023-04-15T00:30:59;4.55;;;1.17;;
67558;SDS011;54388;53.536;49.300;2023-04-15T00:33:25;2.58;;;0.90;;
67558;SDS011;54388;53.536;49.300;2023-04-15T00:35:52;3.42;;;1.17;;
67558;SDS011;54388;53.536;49.300;2023-04-15T00:38:18;3.78;;;0.90;;
67558;SDS011;54388;53.536;49.300;2023-04-15T00:40:45;5.03;;;1.02;;
67558;SDS011;54388;53.536;49.300;2023-04-15T00:43:11;2.63;;;1.02;;
67558;SDS011;54388;53.536;49.300;2023-04-15T00:45:37;4.53;;;0.80;;
67558;SDS011;54388;53.536;49.300;2023-04-15T00:48:04;2.55;;;1.02;;
67558;SDS011;54388;53.536;49.300;2023-04-15T00:50:30;2.55;;;0.93;;
67558;SDS011;54388;53.536;49.300;2023-04-15T00:52:57;3.08;;;1.20;;
67558;SDS011;54388;53.536;49.300;2023-04-15T00:55:24;3.13;;;0.98;;
67558;SDS011;54388;53.536;49.300;2023-04-15T00:57:51;2.22;;;0.73;;
67558;SDS011;54388;53.536;49.300;2023-04-15T01:00:17;2.65;;;0.90;;
67558;SDS011;54388;53.536;49.300;2023-04-15T01:02:45;3.50;;;0.80;;
67558;SDS011;54388;53.536;49.300;2023-04-15T01:05:12;5.55;;;1.10;;
67558;SDS011;54388;53.536;49.300;2023-04-15T01:07:39;3.78;;;0.95;;
67558;SDS011;54388;53.536;49.300;2023-04-15T01:10:05;3.00;;;0.88;;
67558;SDS011;54388;53.536;49.300;2023-04-15T01:12:32;4.13;;;1.30;;
67558;SDS011;54388;53.536;49.300;2023-04-15T01:14:59;5.78;;;0.82;;
67558;SDS011;54388;53.536;49.300;2023-04-15T01:17:27;2.30;;;0.80;;
67558;SDS011;54388;53.536;49.300;2023-04-15T01:19:54;3.53;;;0.90;;
67558;SDS011;54388;53.536;49.300;2023-04-15T01:22:23;2.92;;;0.90;;
67558;SDS011;54388;53.536;49.300;2023-04-15T01:24:56;2.42;;;0.68;;
67558;SDS011;54388;53.536;49.300;2023-04-15T01:27:30;2.90;;;0.95;;
67558;SDS011;54388;53.536;49.300;2023-04-15T01:29:58;2.95;;;0.93;;
67558;SDS011;54388;53.536;49.300;2023-04-15T01:32:24;1.55;;;0.68;;
67558;SDS011;54388;53.536;49.300;2023-04-15T01:34:51;3.13;;;0.70;;
67558;SDS011;54388;53.536;49.300;2023-04-15T01:37:18;2.70;;;0.90;;
67558;SDS011;54388;53.536;49.300;2023-04-15T01:39:45;1.80;;;0.60;;
67558;SDS011;54388;53.536;49.300;2023-04-15T01:42:11;2.72;;;0.70;;
67558;SDS011;54388;53.536;49.300;2023-04-15T01:44:38;2.13;;;1.00;;
67558;SDS011;54388;53.536;49.300;2023-04-15T01:47:04;4.28;;;1.20;;
67558;SDS011;54388;53.536;49.300;2023-04-15T01:49:31;3.10;;;1.00;;
67558;SDS011;54388;53.536;49.300;2023-04-15T01:51:57;1.77;;;0.63;;
67558;SDS011;54388;53.536;49.300;2023-04-15T01:54:25;4.53;;;1.30;;
67558;SDS011;54388;53.536;49.300;2023-04-15T01:56:52;3.45;;;1.25;;
67558;SDS011;54388;53.536;49.300;2023-04-15T01:59:18;3.10;;;1.15;;
67558;SDS011;54388;53.536;49.300;2023-04-15T02:01:45;3.38;;;1.40;;
67558;SDS011;54388;53.536;49.300;2023-04-15T02:04:12;4.70;;;1.40;;
67558;SDS011;54388;53.536;49.300;2023-04-15T02:06:41;5.00;;;1.80;;
67558;SDS011;54388;53.536;49.300;2023-04-15T02:09:09;5.07;;;1.65;;
67558;SDS011;54388;53.536;49.300;2023-04-15T02:11:35;5.07;;;1.50;;
67558;SDS011;54388;53.536;49.300;2023-04-15T02:14:02;7.72;;;1.55;;
67558;SDS011;54388;53.536;49.300;2023-04-15T02:16:30;3.35;;;1.20;;
67558;SDS011;54388;53.536;49.300;2023-04-15T02:18:58;6.03;;;1.60;;
67558;SDS011;54388;53.536;49.300;2023-04-15T02:21:25;2.90;;;1.40;;
67558;SDS011;54388;53.536;49.300;2023-04-15T02:23:52;5.38;;;1.35;;
67558;SDS011;54388;53.536;49.300;2023-04-15T02:26:21;5.07;;;1.30;;
67558;SDS011;54388;53.536;49.300;2023-04-15T02:28:49;5.72;;;1.40;;
67558;SDS011;54388;53.536;49.300;2023-04-15T02:31:16;5.63;;;1.00;;
67558;SDS011;54388;53.536;49.300;2023-04-15T02:33:42;4.40;;;1.65;;
67558;SDS011;54388;53.536;49.300;2023-04-15T02:36:09;3.30;;;1.50;;
67558;SDS011;54388;53.536;49.300;2023-04-15T02:38:37;5.68;;;1.50;;
67558;SDS011;54388;53.536;49.300;2023-04-15T02:41:05;5.25;;;1.48;;
67558;SDS011;54388;53.536;49.300;2023-04-15T02:43:31;3.58;;;1.55;;
67558;SDS011;54388;53.536;49.300;2023-04-15T02:45:58;5.47;;;1.60;;
67558;SDS011;54388;53.536;49.300;2023-04-15T02:48:24;3.33;;;1.35;;
67558;SDS011;54388;53.536;49.300;2023-04-15T02:50:50;5.75;;;1.52;;
67558;SDS011;54388;53.536;49.300;2023-04-15T02:53:17;7.20;;;1.67;;
67558;SDS011;54388;53.536;49.300;2023-04-15T02:55:44;5.97;;;1.65;;
67558;SDS011;54388;53.536;49.300;2023-04-15T02:58:11;8.52;;;1.45;;
67558;SDS011;54388;53.536;49.300;2023-04-15T03:00:37;7.45;;;1.98;;
67558;SDS011;54388;53.536;49.300;2023-04-15T03:03:04;6.47;;;1.67;;
67558;SDS011;54388;53.536;49.300;2023-04-15T03:05:31;5.15;;;1.48;;
67558;SDS011;54388;53.536;49.300;2023-04-15T03:07:57;5.65;;;1.50;;
67558;SDS011;54388;53.536;49.300;2023-04-15T03:10:25;5.00;;;1.50;;
67558;SDS011;54388;53.536;49.300;2023-04-15T03:12:52;3.60;;;1.30;;
67558;SDS011;54388;53.536;49.300;2023-04-15T03:15:18;5.05;;;1.40;;
67558;SDS011;54388;53.536;49.300;2023-04-15T03:17:45;4.65;;;1.63;;
67558;SDS011;54388;53.536;49.300;2023-04-15T03:20:13;5.68;;;1.73;;
67558;SDS011;54388;53.536;49.300;2023-04-15T03:22:40;3.65;;;1.50;;
67558;SDS011;54388;53.536;49.300;2023-04-15T03:25:06;5.75;;;1.00;;
67558;SDS011;54388;53.536;49.300;2023-04-15T03:27:33;6.53;;;1.17;;
67558;SDS011;54388;53.536;49.300;2023-04-15T03:29:59;3.80;;;1.10;;
67558;SDS011;54388;53.536;49.300;2023-04-15T03:32:26;5.20;;;1.08;;
67558;SDS011;54388;53.536;49.300;2023-04-15T03:34:52;4.90;;;0.82;;
67558;SDS011;54388;53.536;49.300;2023-04-15T03:37:19;2.88;;;0.80;;
67558;SDS011;54388;53.536;49.300;2023-04-15T03:39:45;3.97;;;0.80;;
67558;SDS011;54388;53.536;49.300;2023-04-15T03:42:12;2.58;;;0.80;;
67558;SDS011;54388;53.536;49.300;2023-04-15T03:44:38;4.30;;;0.80;;
67558;SDS011;54388;53.536;49.300;2023-04-15T03:47:05;5.25;;;1.17;;
67558;SDS011;54388;53.536;49.300;2023-04-15T03:49:32;3.92;;;0.77;;
67558;SDS011;54388;53.536;49.300;2023-04-15T03:51:58;5.50;;;1.08;;
67558;SDS011;54388;53.536;49.300;2023-04-15T03:54:25;7.95;;;1.10;;
67558;SDS011;54388;53.536;49.300;2023-04-15T03:56:51;6.60;;;1.45;;
67558;SDS011;54388;53.536;49.300;2023-04-15T03:59:18;3.10;;;0.85;;
67558;SDS011;54388;53.536;49.300;2023-04-15T04:01:45;3.15;;;1.20;;
67558;SDS011;54388;53.536;49.300;2023-04-15T04:04:11;5.30;;;1.10;;
67558;SDS011;54388;53.536;49.300;2023-04-15T04:06:38;3.53;;;1.00;;
67558;SDS011;54388;53.536;49.300;2023-04-15T04:09:04;2.15;;;0.90;;
67558;SDS011;54388;53.536;49.300;2023-04-15T04:11:30;2.22;;;1.05;;
67558;SDS011;54388;53.536;49.300;2023-04-15T04:13:57;6.65;;;1.20;;
67558;SDS011;54388;53.536;49.300;2023-04-15T04:16:24;3.50;;;1.30;;
67558;SDS011;54388;53.536;49.300;2023-04-15T04:18:52;4.63;;;1.33;;
67558;SDS011;54388;53.536;49.300;2023-04-15T04:21:18;3.72;;;1.02;;
67558;SDS011;54388;53.536;49.300;2023-04-15T04:23:46;2.08;;;0.80;;
67558;SDS011;54388;53.536;49.300;2023-04-15T04:26:12;4.75;;;1.15;;
67558;SDS011;54388;53.536;49.300;2023-04-15T04:28:39;3.28;;;1.10;;
67558;SDS011;54388;53.536;49.300;2023-04-15T04:31:05;3.60;;;0.80;;
67558;SDS011;54388;53.536;49.300;2023-04-15T04:33:32;5.18;;;1.10;;
67558;SDS011;54388;53.536;49.300;2023-04-15T04:35:59;2.83;;;0.95;;
67558;SDS011;54388;53.536;49.300;2023-04-15T04:38:26;1.52;;;0.80;;
67558;SDS011;54388;53.536;49.300;2023-04-15T04:40:52;2.83;;;0.88;;
67558;SDS011;54388;53.536;49.300;2023-04-15T04:43:18;2.88;;;0.88;;
67558;SDS011;54388;53.536;49.300;2023-04-15T04:45:45;2.60;;;0.90;;
67558;SDS011;54388;53.536;49.300;2023-04-15T04:48:12;3.38;;;1.10;;
67558;SDS011;54388;53.536;49.300;2023-04-15T04:50:38;2.33;;;1.00;;
67558;SDS011;54388;53.536;49.300;2023-04-15T04:53:05;2.90;;;1.20;;
67558;SDS011;54388;53.536;49.300;2023-04-15T04:55:31;7.47;;;1.10;;
67558;SDS011;54388;53.536;49.300;2023-04-15T04:58:01;2.47;;;0.82;;
67558;SDS011;54388;53.536;49.300;2023-04-15T05:00:28;2.50;;;1.13;;
67558;SDS011;54388;53.536;49.300;2023-04-15T05:02:55;2.45;;;0.75;;
67558;SDS011;54388;53.536;49.300;2023-04-15T05:05:28;3.28;;;1.20;;
67558;SDS011;54388;53.536;49.300;2023-04-15T05:08:32;5.35;;;1.00;;
67558;SDS011;54388;53.536;49.300;2023-04-15T05:10:59;2.17;;;0.93;;
67558;SDS011;54388;53.536;49.300;2023-04-15T05:13:25;3.85;;;0.93;;
67558;SDS011;54388;53.536;49.300;2023-04-15T05:15:52;4.45;;;1.10;;
67558;SDS011;54388;53.536;49.300;2023-04-15T05:18:18;2.67;;;1.10;;
67558;SDS011;54388;53.536;49.300;2023-04-15T05:20:45;2.53;;;1.00;;
67558;SDS011;54388;53.536;49.300;2023-04-15T05:23:14;6.93;;;1.10;;
67558;SDS011;54388;53.536;49.300;2023-04-15T05:25:42;3.83;;;0.93;;
67558;SDS011;54388;53.536;49.300;2023-04-15T05:28:09;4.03;;;1.05;;
67558;SDS011;54388;53.536;49.300;2023-04-15T05:30:36;7.63;;;1.08;;
67558;SDS011;54388;53.536;49.300;2023-04-15T05:33:02;4.25;;;1.10;;
67558;SDS011;54388;53.536;49.300;2023-04-15T05:35:29;2.78;;;0.90;;
67558;SDS011;54388;53.536;49.300;2023-04-15T05:37:56;4.32;;;1.15;;
67558;SDS011;54388;53.536;49.300;2023-04-15T05:40:22;8.10;;;1.10;;
67558;SDS011;54388;53.536;49.300;2023-04-15T05:42:48;3.78;;;1.10;;
67558;SDS011;54388;53.536;49.300;2023-04-15T05:45:15;5.63;;;0.95;;
67558;SDS011;54388;53.536;49.300;2023-04-15T05:47:42;4.80;;;0.95;;
67558;SDS011;54388;53.536;49.300;2023-04-15T05:50:08;3.80;;;1.08;;
67558;SDS011;54388;53.536;49.300;2023-04-15T05:52:35;3.40;;;1.10;;
67558;SDS011;54388;53.536;49.300;2023-04-15T05:55:02;8.27;;;1.73;;
67558;SDS011;54388;53.536;49.300;2023-04-15T05:57:29;7.32;;;1.10;;
67558;SDS011;54388;53.536;49.300;2023-04-15T05:59:55;3.10;;;1.08;;
67558;SDS011;54388;53.536;49.300;2023-04-15T06:02:23;4.00;;;1.10;;
67558;SDS011;54388;53.536;49.300;2023-04-15T06:04:49;8.55;;;1.30;;
67558;SDS011;54388;53.536;49.300;2023-04-15T06:07:16;3.42;;;1.05;;
67558;SDS011;54388;53.536;49.300;2023-04-15T06:09:43;4.55;;;1.52;;
67558;SDS011;54388;53.536;49.300;2023-04-15T06:12:10;9.60;;;2.00;;
67558;SDS011;54388;53.536;49.300;2023-04-15T06:14:37;2.92;;;0.85;;
67558;SDS011;54388;53.536;49.300;2023-04-15T06:17:05;2.83;;;1.00;;
67558;SDS011;54388;53.536;49.300;2023-04-15T06:19:32;4.30;;;1.08;;
67558;SDS011;54388;53.536;49.300;2023-04-15T06:21:59;3.85;;;1.30;;
67558;SDS011;54388;53.536;49.300;2023-04-15T06:24:26;4.63;;;1.08;;
67558;SDS011;54388;53.536;49.300;2023-04-15T06:26:53;3.72;;;0.90;;
67558;SDS011;54388;53.536;49.300;2023-04-15T06:29:20;3.25;;;1.15;;
67558;SDS011;54388;53.536;49.300;2023-04-15T06:31:53;4.53;;;1.20;;
67558;SDS011;54388;53.536;49.300;2023-04-15T06:34:21;3.72;;;1.10;;
67558;SDS011;54388;53.536;49.300;2023-04-15T06:36:47;6.75;;;1.30;;
67558;SDS011;54388;53.536;49.300;2023-04-15T06:39:14;4.13;;;0.80;;
67558;SDS011;54388;53.536;49.300;2023-04-15T06:41:40;4.95;;;1.08;;
67558;SDS011;54388;53.536;49.300;2023-04-15T06:44:07;4.25;;;1.10;;
67558;SDS011;54388;53.536;49.300;2023-04-15T06:46:34;3.97;;;1.38;;
67558;SDS011;54388;53.536;49.300;2023-04-15T06:49:00;4.28;;;1.20;;
67558;SDS011;54388;53.536;49.300;2023-04-15T06:51:28;5.28;;;1.50;;
67558;SDS011;54388;53.536;49.300;2023-04-15T06:53:54;2.88;;;1.10;;
67558;SDS011;54388;53.536;49.300;2023-04-15T06:56:21;4.15;;;0.82;;
67558;SDS011;54388;53.536;49.300;2023-04-15T06:58:48;3.80;;;1.02;;
67558;SDS011;54388;53.536;49.300;2023-04-15T07:01:15;5.35;;;1.00;;
67558;SDS011;54388;53.536;49.300;2023-04-15T07:03:41;4.32;;;1.10;;
67558;SDS011;54388;53.536;49.300;2023-04-15T07:06:08;3.30;;;1.35;;
67558;SDS011;54388;53.536;49.300;2023-04-15T07:08:34;2.92;;;1.15;;
67558;SDS011;54388;53.536;49.300;2023-04-15T07:11:01;2.72;;;1.20;;
67558;SDS011;54388;53.536;49.300;2023-04-15T07:13:29;4.88;;;1.13;;
67558;SDS011;54388;53.536;49.300;2023-04-15T07:15:57;2.03;;;0.85;;
67558;SDS011;54388;53.536;49.300;2023-04-15T07:18:23;7.50;;;1.58;;
67558;SDS011;54388;53.536;49.300;2023-04-15T07:20:50;3.38;;;1.20;;
67558;SDS011;54388;53.536;49.300;2023-04-15T07:23:17;2.10;;;0.68;;
67558;SDS011;54388;53.536;49.300;2023-04-15T07:25:43;3.97;;;0.90;;
67558;SDS011;54388;53.536;49.300;2023-04-15T07:28:10;3.08;;;0.80;;
67558;SDS011;54388;53.536;49.300;2023-04-15T07:30:37;4.63;;;1.00;;
67558;SDS011;54388;53.536;49.300;2023-04-15T07:33:04;6.75;;;1.40;;
67558;SDS011;54388;53.536;49.300;2023-04-15T07:35:31;3.72;;;0.95;;
67558;SDS011;54388;53.536;49.300;2023-04-15T07:37:58;1.90;;;0.90;;
67558;SDS011;54388;53.536;49.300;2023-04-15T07:40:24;5.78;;;1.10;;
67558;SDS011;54388;53.536;49.300;2023-04-15T07:42:51;5.55;;;1.40;;
67558;SDS011;54388;53.536;49.300;2023-04-15T07:45:17;2.25;;;0.95;;
67558;SDS011;54388;53.536;49.300;2023-04-15T07:47:44;5.80;;;1.35;;
67558;SDS011;54388;53.536;49.300;2023-04-15T07:50:12;3.08;;;0.98;;
67558;SDS011;54388;53.536;49.300;2023-04-15T07:52:40;3.38;;;0.85;;
67558;SDS011;54388;53.536;49.300;2023-04-15T07:55:08;2.60;;;1.27;;
67558;SDS011;54388;53.536;49.300;2023-04-15T07:57:35;3.75;;;1.02;;
67558;SDS011;54388;53.536;49.300;2023-04-15T08:00:02;3.78;;;1.20;;
67558;SDS011;54388;53.536;49.300;2023-04-15T08:02:32;2.35;;;0.88;;
67558;SDS011;54388;53.536;49.300;2023-04-15T08:05:00;2.17;;;0.90;;
67558;SDS011;54388;53.536;49.300;2023-04-15T08:07:29;4.43;;;0.80;;
67558;SDS011;54388;53.536;49.300;2023-04-15T08:09:57;4.88;;;1.23;;
67558;SDS011;54388;53.536;49.300;2023-04-15T08:12:24;2.35;;;0.93;;
67558;SDS011;54388;53.536;49.300;2023-04-15T08:14:51;2.28;;;0.90;;
67558;SDS011;54388;53.536;49.300;2023-04-15T08:17:18;6.13;;;1.58;;
67558;SDS011;54388;53.536;49.300;2023-04-15T08:19:45;3.17;;;0.77;;
67558;SDS011;54388;53.536;49.300;2023-04-15T08:22:13;2.85;;;0.70;;
67558;SDS011;54388;53.536;49.300;2023-04-15T08:24:40;4.93;;;1.00;;
67558;SDS011;54388;53.536;49.300;2023-04-15T08:27:07;4.63;;;1.10;;
67558;SDS011;54388;53.536;49.300;2023-04-15T08:29:33;3.47;;;1.25;;
67558;SDS011;54388;53.536;49.300;2023-04-15T08:32:00;2.05;;;0.73;;
67558;SDS011;54388;53.536;49.300;2023-04-15T08:34:28;3.30;;;0.90;;
67558;SDS011;54388;53.536;49.300;2023-04-15T08:36:55;8.88;;;1.50;;
67558;SDS011;54388;53.536;49.300;2023-04-15T08:39:22;6.47;;;1.35;;
67558;SDS011;54388;53.536;49.300;2023-04-15T08:44:19;6.03;;;1.60;;
67558;SDS011;54388;53.536;49.300;2023-04-15T08:46:48;2.88;;;1.20;;
67558;SDS011;54388;53.536;49.300;2023-04-15T08:49:17;8.38;;;1.40;;
67558;SDS011;54388;53.536;49.300;2023-04-15T08:51:47;7.60;;;1.17;;
67558;SDS011;54388;53.536;49.300;2023-04-15T08:54:15;3.03;;;1.00;;
67558;SDS011;54388;53.536;49.300;2023-04-15T08:56:43;3.75;;;0.95;;
67558;SDS011;54388;53.536;49.300;2023-04-15T08:59:10;6.75;;;1.00;;
67558;SDS011;54388;53.536;49.300;2023-04-15T09:01:38;1.75;;;1.08;;
67558;SDS011;54388;53.536;49.300;2023-04-15T09:04:05;4.53;;;0.85;;
67558;SDS011;54388;53.536;49.300;2023-04-15T09:06:32;1.90;;;0.70;;
67558;SDS011;54388;53.536;49.300;2023-04-15T09:08:59;6.38;;;1.58;;
67558;SDS011;54388;53.536;49.300;2023-04-15T09:11:26;5.18;;;0.77;;
67558;SDS011;54388;53.536;49.300;2023-04-15T09:13:55;7.47;;;1.23;;
67558;SDS011;54388;53.536;49.300;2023-04-15T09:16:22;7.32;;;1.08;;
67558;SDS011;54388;53.536;49.300;2023-04-15T09:18:49;3.75;;;1.02;;
67558;SDS011;54388;53.536;49.300;2023-04-15T09:21:16;2.88;;;0.68;;
67558;SDS011;54388;53.536;49.300;2023-04-15T09:23:56;5.15;;;1.08;;
67558;SDS011;54388;53.536;49.300;2023-04-15T09:26:34;4.32;;;0.70;;
67558;SDS011;54388;53.536;49.300;2023-04-15T09:29:04;2.25;;;0.85;;
67558;SDS011;54388;53.536;49.300;2023-04-15T09:31:32;2.72;;;0.80;;
67558;SDS011;54388;53.536;49.300;2023-04-15T09:33:58;5.53;;;1.05;;
67558;SDS011;54388;53.536;49.300;2023-04-15T09:36:25;2.30;;;0.50;;
67558;SDS011;54388;53.536;49.300;2023-04-15T09:38:54;3.63;;;0.60;;
67558;SDS011;54388;53.536;49.300;2023-04-15T09:41:25;2.92;;;0.77;;
67558;SDS011;54388;53.536;49.300;2023-04-15T09:43:53;1.83;;;0.50;;
67558;SDS011;54388;53.536;49.300;2023-04-15T09:46:19;1.98;;;0.52;;
67558;SDS011;54388;53.536;49.300;2023-04-15T09:49:08;1.27;;;0.60;;
67558;SDS011;54388;53.536;49.300;2023-04-15T09:51:36;3.80;;;0.77;;
67558;SDS011;54388;53.536;49.300;2023-04-15T09:54:04;4.03;;;0.80;;
67558;SDS011;54388;53.536;49.300;2023-04-15T09:56:35;3.20;;;0.60;;
67558;SDS011;54388;53.536;49.300;2023-04-15T09:59:06;2.72;;;0.90;;
67558;SDS011;54388;53.536;49.300;2023-04-15T10:01:36;4.72;;;1.48;;
67558;SDS011;54388;53.536;49.300;2023-04-15T10:04:05;4.82;;;0.93;;
67558;SDS011;54388;53.536;49.300;2023-04-15T10:06:33;4.80;;;0.80;;
67558;SDS011;54388;53.536;49.300;2023-04-15T10:09:01;2.55;;;0.68;;
67558;SDS011;54388;53.536;49.300;2023-04-15T10:11:28;5.57;;;0.90;;
67558;SDS011;54388;53.536;49.300;2023-04-15T10:13:56;3.65;;;0.95;;
67558;SDS011;54388;53.536;49.300;2023-04-15T10:16:25;7.95;;;0.93;;
67558;SDS011;54388;53.536;49.300;2023-04-15T10:18:56;4.10;;;0.85;;
67558;SDS011;54388;53.536;49.300;2023-04-15T10:21:26;1.35;;;0.52;;
67558;SDS011;54388;53.536;49.300;2023-04-15T10:23:53;3.53;;;0.60;;
67558;SDS011;54388;53.536;49.300;2023-04-15T10:26:21;2.33;;;0.73;;
67558;SDS011;54388;53.536;49.300;2023-04-15T10:28:49;3.50;;;0.75;;
67558;SDS011;54388;53.536;49.300;2023-04-15T10:31:16;3.83;;;0.88;;
67558;SDS011;54388;53.536;49.300;2023-04-15T10:33:44;1.63;;;0.60;;
67558;SDS011;54388;53.536;49.300;2023-04-15T10:36:13;1.73;;;0.60;;
67558;SDS011;54388;53.536;49.300;2023-04-15T10:38:42;1.33;;;0.55;;
67558;SDS011;54388;53.536;49.300;2023-04-15T10:41:14;2.15;;;0.60;;
67558;SDS011;54388;53.536;49.300;2023-04-15T10:43:49;2.60;;;0.50;;
67558;SDS011;54388;53.536;49.300;2023-04-15T10:46:18;0.55;;;0.45;;
67558;SDS011;54388;53.536;49.300;2023-04-15T10:48:50;3.60;;;0.90;;
67558;SDS011;54388;53.536;49.300;2023-04-15T10:51:29;1.95;;;0.90;;
67558;SDS011;54388;53.536;49.300;2023-04-15T10:53:59;2.95;;;0.68;;
67558;SDS011;54388;53.536;49.300;2023-04-15T10:56:28;3.97;;;0.75;;
67558;SDS011;54388;53.536;49.300;2023-04-15T10:58:57;1.30;;;0.45;;
67558;SDS011;54388;53.536;49.300;2023-04-15T11:12:53;0.63;;;0.40;;
67558;SDS011;54388;53.536;49.300;2023-04-15T11:15:29;1.85;;;0.90;;
67558;SDS011;54388;53.536;49.300;2023-04-15T11:18:09;4.22;;;0.55;;
67558;SDS011;54388;53.536;49.300;2023-04-15T11:20:46;5.05;;;0.73;;
67558;SDS011;54388;53.536;49.300;2023-04-15T11:23:16;2.95;;;0.90;;
67558;SDS011;54388;53.536;49.300;2023-04-15T11:25:43;2.22;;;0.70;;
67558;SDS011;54388;53.536;49.300;2023-04-15T11:28:11;4.15;;;0.68;;
67558;SDS011;54388;53.536;49.300;2023-04-15T11:30:38;4.88;;;0.75;;
67558;SDS011;54388;53.536;49.300;2023-04-15T11:33:07;3.20;;;1.10;;
67558;SDS011;54388;53.536;49.300;2023-04-15T11:35:36;2.65;;;0.70;;
67558;SDS011;54388;53.536;49.300;2023-04-15T11:38:09;1.65;;;0.43;;
67558;SDS011;54388;53.536;49.300;2023-04-15T11:40:38;3.80;;;0.95;;
67558;SDS011;54388;53.536;49.300;2023-04-15T11:43:09;3.15;;;0.63;;
67558;SDS011;54388;53.536;49.300;2023-04-15T11:45:47;5.55;;;1.13;;
67558;SDS011;54388;53.536;49.300;2023-04-15T11:48:14;4.75;;;0.90;;
67558;SDS011;54388;53.536;49.300;2023-04-15T11:50:40;3.38;;;1.00;;
67558;SDS011;54388;53.536;49.300;2023-04-15T11:53:08;3.78;;;0.90;;
67558;SDS011;54388;53.536;49.300;2023-04-15T11:55:46;5.38;;;1.15;;
67558;SDS011;54388;53.536;49.300;2023-04-15T12:00:49;2.72;;;1.27;;
67558;SDS011;54388;53.536;49.300;2023-04-15T12:03:25;6.03;;;1.10;;
67558;SDS011;54388;53.536;49.300;2023-04-15T12:11:46;3.05;;;1.20;;
67558;SDS011;54388;53.536;49.300;2023-04-15T12:16:44;4.30;;;1.33;;
67558;SDS011;54388;53.536;49.300;2023-04-15T12:19:14;2.25;;;0.68;;
67558;SDS011;54388;53.536;49.300;2023-04-15T12:22:02;4.47;;;1.00;;
67558;SDS011;54388;53.536;49.300;2023-04-15T12:24:38;3.15;;;1.13;;
67558;SDS011;54388;53.536;49.300;2023-04-15T12:27:07;1.73;;;0.90;;
67558;SDS011;54388;53.536;49.300;2023-04-15T12:29:36;3.20;;;1.30;;
67558;SDS011;54388;53.536;49.300;2023-04-15T12:34:33;2.83;;;1.17;;
67558;SDS011;54388;53.536;49.300;2023-04-15T12:37:08;4.40;;;1.27;;
67558;SDS011;54388;53.536;49.300;2023-04-15T12:39:40;2.92;;;1.27;;
67558;SDS011;54388;53.536;49.300;2023-04-15T12:42:08;3.55;;;1.45;;
67558;SDS011;54388;53.536;49.300;2023-04-15T12:44:36;4.05;;;1.60;;
67558;SDS011;54388;53.536;49.300;2023-04-15T12:47:03;2.58;;;1.25;;
67558;SDS011;54388;53.536;49.300;2023-04-15T12:49:31;2.35;;;1.17;;
67558;SDS011;54388;53.536;49.300;2023-04-15T12:51:59;5.88;;;1.40;;
67558;SDS011;54388;53.536;49.300;2023-04-15T12:54:27;3.47;;;1.48;;
67558;SDS011;54388;53.536;49.300;2023-04-15T12:56:54;5.28;;;1.60;;
67558;SDS011;54388;53.536;49.300;2023-04-15T12:59:21;5.20;;;1.58;;
67558;SDS011;54388;53.536;49.300;2023-04-15T13:01:49;4.65;;;1.83;;
67558;SDS011;54388;53.536;49.300;2023-04-15T13:04:17;3.17;;;1.55;;
67558;SDS011;54388;53.536;49.300;2023-04-15T13:06:45;5.07;;;1.70;;
67558;SDS011;54388;53.536;49.300;2023-04-15T13:09:12;3.47;;;1.50;;
67558;SDS011;54388;53.536;49.300;2023-04-15T13:11:38;6.43;;;1.63;;
67558;SDS011;54388;53.536;49.300;2023-04-15T13:14:06;3.78;;;1.45;;
67558;SDS011;54388;53.536;49.300;2023-04-15T13:16:34;6.30;;;1.73;;
67558;SDS011;54388;53.536;49.300;2023-04-15T13:19:01;4.05;;;1.65;;
67558;SDS011;54388;53.536;49.300;2023-04-15T13:21:29;3.30;;;1.60;;
67558;SDS011;54388;53.536;49.300;2023-04-15T13:23:59;4.22;;;1.65;;
67558;SDS011;54388;53.536;49.300;2023-04-15T13:26:26;3.80;;;1.38;;
67558;SDS011;54388;53.536;49.300;2023-04-15T13:28:53;4.65;;;1.80;;
67558;SDS011;54388;53.536;49.300;2023-04-15T13:31:21;3.70;;;1.60;;
67558;SDS011;54388;53.536;49.300;2023-04-15T13:33:47;5.35;;;1.48;;
67558;SDS011;54388;53.536;49.300;2023-04-15T13:36:14;3.22;;;1.63;;
67558;SDS011;54388;53.536;49.300;2023-04-15T13:38:41;4.90;;;1.70;;
67558;SDS011;54388;53.536;49.300;2023-04-15T13:41:07;4.70;;;1.50;;
67558;SDS011;54388;53.536;49.300;2023-04-15T13:43:34;3.17;;;1.50;;
67558;SDS011;54388;53.536;49.300;2023-04-15T13:46:01;6.40;;;1.50;;
67558;SDS011;54388;53.536;49.300;2023-04-15T13:48:28;3.70;;;1.50;;
67558;SDS011;54388;53.536;49.300;2023-04-15T13:50:54;4.47;;;1.65;;
67558;SDS011;54388;53.536;49.300;2023-04-15T13:53:21;7.40;;;1.45;;
67558;SDS011;54388;53.536;49.300;2023-04-15T13:55:47;8.38;;;1.70;;
67558;SDS011;54388;53.536;49.300;2023-04-15T13:58:14;2.28;;;1.05;;
67558;SDS011;54388;53.536;49.300;2023-04-15T14:00:41;6.88;;;1.95;;
67558;SDS011;54388;53.536;49.300;2023-04-15T14:03:08;7.00;;;1.88;;
67558;SDS011;54388;53.536;49.300;2023-04-15T14:05:35;4.85;;;1.50;;
67558;SDS011;54388;53.536;49.300;2023-04-15T14:08:02;4.28;;;1.10;;
67558;SDS011;54388;53.536;49.300;2023-04-15T14:10:29;3.67;;;1.00;;
67558;SDS011;54388;53.536;49.300;2023-04-15T14:12:55;6.03;;;1.30;;
67558;SDS011;54388;53.536;49.300;2023-04-15T14:15:22;2.83;;;1.30;;
67558;SDS011;54388;53.536;49.300;2023-04-15T14:17:48;2.33;;;1.05;;
67558;SDS011;54388;53.536;49.300;2023-04-15T14:20:15;6.68;;;1.75;;
67558;SDS011;54388;53.536;49.300;2023-04-15T14:22:42;6.13;;;1.23;;
67558;SDS011;54388;53.536;49.300;2023-04-15T14:25:08;6.15;;;1.20;;
67558;SDS011;54388;53.536;49.300;2023-04-15T14:27:35;5.55;;;1.73;;
67558;SDS011;54388;53.536;49.300;2023-04-15T14:30:01;4.55;;;2.13;;
67558;SDS011;54388;53.536;49.300;2023-04-15T14:32:28;2.35;;;1.55;;
67558;SDS011;54388;53.536;49.300;2023-04-15T14:34:55;7.10;;;2.10;;
67558;SDS011;54388;53.536;49.300;2023-04-15T14:37:22;4.90;;;1.77;;
67558;SDS011;54388;53.536;49.300;2023-04-15T14:39:48;2.22;;;1.17;;
67558;SDS011;54388;53.536;49.300;2023-04-15T14:42:16;4.43;;;1.02;;
67558;SDS011;54388;53.536;49.300;2023-04-15T14:44:45;7.13;;;1.10;;
67558;SDS011;54388;53.536;49.300;2023-04-15T14:47:15;6.47;;;1.08;;
67558;SDS011;54388;53.536;49.300;2023-04-15T14:49:42;2.65;;;1.08;;
67558;SDS011;54388;53.536;49.300;2023-04-15T14:52:08;3.42;;;1.00;;
67558;SDS011;54388;53.536;49.300;2023-04-15T14:54:35;3.03;;;1.00;;
67558;SDS011;54388;53.536;49.300;2023-04-15T14:57:02;3.33;;;1.10;;
67558;SDS011;54388;53.536;49.300;2023-04-15T14:59:28;6.25;;;1.20;;
67558;SDS011;54388;53.536;49.300;2023-04-15T15:01:56;2.17;;;0.85;;
67558;SDS011;54388;53.536;49.300;2023-04-15T15:04:22;3.10;;;1.08;;